Time;durP1;ratioP1;P1;durP2;ratioP2;P2;SDS_P1;SDS_P2;PMS_P1;PMS_P2;Temp;Humidity;BMP_temperature;BMP_pressure;BME280_temperature;BME280_humidity;BME280_pressure;Samples;Min_cycle;Max_cycle;Signal;HPM_P1;HPM_P2
2023/03/04 00:01:15;;;;;;;14.50;1.08;;;5.90;99.90;;;;;;5044907;28;20148;-40
2023/03/04 00:03:41;;;;;;;14.70;1.23;;;4.80;99.90;;;;;;5044508;28;20122;-40
2023/03/04 00:06:07;;;;;;;16.63;2.75;;;5.70;99.90;;;;;;5045016;28;20049;-40
2023/03/04 00:08:33;;;;;;;6.20;0.65;;;4.80;99.90;;;;;;5044300;28;20067;-40
2023/03/04 00:10:58;;;;;;;20.83;1.02;;;4.80;99.90;;;;;;5044674;28;20044;-40
2023/03/04 00:13:24;;;;;;;14.30;1.65;;;5.00;99.90;;;;;;5044575;28;20036;-41
2023/03/04 00:15:51;;;;;;;8.88;1.40;;;5.90;99.90;;;;;;5044663;28;20167;-40
2023/03/04 00:18:17;;;;;;;11.98;1.83;;;5.00;99.90;;;;;;5042883;28;20055;-40
2023/03/04 00:20:43;;;;;;;9.40;0.95;;;4.80;99.90;;;;;;5045025;28;20675;-40
2023/03/04 00:23:08;;;;;;;14.48;1.65;;;6.00;99.90;;;;;;5045195;28;20040;-40
2023/03/04 00:25:34;;;;;;;12.18;0.85;;;5.80;99.90;;;;;;5043230;28;20081;-40
2023/03/04 00:28:00;;;;;;;13.82;1.58;;;5.00;99.90;;;;;;5044558;28;20089;-40
2023/03/04 00:30:26;;;;;;;10.88;1.33;;;6.10;99.90;;;;;;5045108;28;20479;-40
2023/03/04 00:32:51;;;;;;;15.38;1.88;;;5.90;99.90;;;;;;5044403;28;20043;-40
2023/03/04 00:35:17;;;;;;;16.02;1.92;;;4.70;99.90;;;;;;5045002;28;20453;-40
2023/03/04 00:37:43;;;;;;;13.88;1.77;;;5.30;99.90;;;;;;5045015;28;20048;-40
2023/03/04 00:40:09;;;;;;;13.02;1.08;;;5.90;99.90;;;;;;5045523;28;20077;-40
2023/03/04 00:42:35;;;;;;;6.90;1.13;;;5.00;99.90;;;;;;5044975;28;20056;-40
2023/03/04 00:45:01;;;;;;;16.05;1.15;;;5.00;99.90;;;;;;5044983;28;20041;-40
2023/03/04 00:47:26;;;;;;;10.32;1.02;;;5.40;99.90;;;;;;5045205;28;20049;-40
2023/03/04 00:49:52;;;;;;;12.82;0.93;;;4.90;99.90;;;;;;5044887;28;20049;-40
2023/03/04 00:52:18;;;;;;;11.68;1.02;;;4.70;99.90;;;;;;5045042;28;20041;-40
2023/03/04 00:54:43;;;;;;;14.43;1.05;;;5.30;99.90;;;;;;5044125;28;20585;-40
2023/03/04 00:57:09;;;;;;;9.82;0.95;;;4.90;99.90;;;;;;5043945;28;20475;-40
2023/03/04 00:59:35;;;;;;;13.18;0.77;;;4.90;99.90;;;;;;5044658;28;20076;-40
2023/03/04 01:02:01;;;;;;;14.27;1.02;;;5.00;99.90;;;;;;5044479;28;20687;-40
2023/03/04 01:04:26;;;;;;;8.70;0.63;;;5.70;99.90;;;;;;5044818;28;20533;-40
2023/03/04 01:06:52;;;;;;;10.55;0.77;;;5.00;99.90;;;;;;5044664;28;20048;-40
2023/03/04 01:09:18;;;;;;;11.65;1.00;;;5.00;99.90;;;;;;5045082;28;20048;-40
2023/03/04 01:11:43;;;;;;;13.38;1.15;;;4.90;99.90;;;;;;5045361;28;20428;-40
2023/03/04 01:14:09;;;;;;;10.55;1.23;;;5.00;99.90;;;;;;5045288;28;20115;-40
2023/03/04 01:16:35;;;;;;;12.68;1.98;;;5.00;99.90;;;;;;5045927;28;20068;-40
2023/03/04 01:19:00;;;;;;;13.23;1.25;;;5.00;99.90;;;;;;5045181;28;20421;-40
2023/03/04 01:21:26;;;;;;;7.20;0.60;;;4.90;99.90;;;;;;5045407;28;20143;-40
2023/03/04 01:23:52;;;;;;;11.73;2.10;;;4.80;99.90;;;;;;5045054;28;20776;-40
2023/03/04 01:26:18;;;;;;;10.43;1.27;;;4.90;99.90;;;;;;5045461;28;20045;-40
2023/03/04 01:28:43;;;;;;;9.65;0.93;;;6.10;99.90;;;;;;5046350;28;20037;-40
2023/03/04 01:31:09;;;;;;;10.43;0.90;;;4.90;99.90;;;;;;5048504;28;20399;-40
2023/03/04 01:33:34;;;;;;;13.05;1.05;;;4.90;99.90;;;;;;5048691;28;20036;-40
2023/03/04 01:36:00;;;;;;;8.48;0.80;;;4.70;99.90;;;;;;5048967;28;20036;-40
2023/03/04 01:38:26;;;;;;;9.90;0.80;;;4.90;99.90;;;;;;5048322;28;20397;-40
2023/03/04 01:40:52;;;;;;;6.78;0.90;;;4.90;99.90;;;;;;5048760;28;20146;-40
2023/03/04 01:43:24;;;;;;;11.48;1.30;;;4.90;99.90;;;;;;5049034;28;20036;-40
2023/03/04 01:45:51;;;;;;;10.40;1.42;;;5.90;99.90;;;;;;5048709;28;20497;-40
2023/03/04 01:48:28;;;;;;;7.28;0.60;;;4.80;99.90;;;;;;5048975;28;20064;-40
2023/03/04 01:50:53;;;;;;;8.38;1.25;;;4.90;99.90;;;;;;5048240;28;20061;-40
2023/03/04 01:53:22;;;;;;;5.93;0.68;;;4.90;99.90;;;;;;5047133;28;20044;-40
2023/03/04 01:55:50;;;;;;;7.72;0.88;;;5.00;99.90;;;;;;5048407;28;20045;-40
2023/03/04 01:58:16;;;;;;;10.40;0.95;;;4.90;99.90;;;;;;5048262;28;20041;-40
2023/03/04 02:00:42;;;;;;;10.45;0.85;;;5.00;99.90;;;;;;5049065;28;20054;-40
2023/03/04 02:03:11;;;;;;;17.40;2.17;;;5.00;99.90;;;;;;5048142;28;20052;-40
2023/03/04 02:05:40;;;;;;;10.65;2.13;;;5.90;99.90;;;;;;5048396;28;20052;-40
2023/03/04 02:08:06;;;;;;;13.18;1.13;;;6.10;99.90;;;;;;5045782;28;20049;-40
2023/03/04 02:10:33;;;;;;;16.60;2.42;;;4.90;99.90;;;;;;5048264;28;20048;-40
2023/03/04 02:13:00;;;;;;;10.90;1.13;;;4.70;99.90;;;;;;5029908;28;20072;-40
2023/03/04 02:15:27;;;;;;;10.93;0.90;;;5.30;99.90;;;;;;5048456;28;20045;-40
2023/03/04 02:17:52;;;;;;;7.50;1.08;;;5.00;99.90;;;;;;5047514;28;20507;-40
2023/03/04 02:20:44;;;;;;;12.80;1.10;;;4.80;99.90;;;;;;5047782;28;20087;-40
2023/03/04 02:23:34;;;;;;;9.40;1.13;;;5.00;99.90;;;;;;5044322;28;20144;-40
2023/03/04 02:26:17;;;;;;;12.88;1.00;;;4.90;99.90;;;;;;5047883;28;20053;-40
2023/03/04 02:28:44;;;;;;;16.27;2.75;;;4.90;99.90;;;;;;5047951;28;20041;-40
2023/03/04 02:31:35;;;;;;;14.35;1.08;;;4.90;99.90;;;;;;5047254;28;20739;-40
2023/03/04 02:34:04;;;;;;;12.10;1.27;;;4.90;99.90;;;;;;5047814;28;20872;-40
2023/03/04 02:36:31;;;;;;;12.70;1.10;;;4.90;99.90;;;;;;5047988;28;20045;-40
2023/03/04 02:39:03;;;;;;;7.55;0.80;;;4.90;99.90;;;;;;5047766;28;20040;-40
2023/03/04 02:41:29;;;;;;;11.93;1.07;;;4.70;99.90;;;;;;5045317;28;20091;-40
2023/03/04 02:43:55;;;;;;;9.68;0.82;;;4.90;99.90;;;;;;5047387;28;20854;-40
2023/03/04 02:46:22;;;;;;;12.32;0.80;;;4.90;99.90;;;;;;5047460;28;20045;-40
2023/03/04 02:48:49;;;;;;;8.90;0.63;;;4.90;99.90;;;;;;5047386;28;20128;-40
2023/03/04 02:51:15;;;;;;;11.07;0.80;;;4.90;99.90;;;;;;5046860;28;20065;-40
2023/03/04 02:53:41;;;;;;;11.25;1.08;;;4.80;99.90;;;;;;5047014;28;20717;-40
2023/03/04 02:56:07;;;;;;;15.30;1.60;;;4.70;99.90;;;;;;5047272;28;20052;-40
2023/03/04 02:58:32;;;;;;;9.32;0.82;;;4.80;99.90;;;;;;5046414;28;20045;-40
2023/03/04 03:00:58;;;;;;;14.10;0.90;;;4.80;99.90;;;;;;5046662;28;20073;-40
2023/03/04 03:03:24;;;;;;;12.68;0.98;;;4.80;99.90;;;;;;5047199;28;20546;-40
2023/03/04 03:05:50;;;;;;;9.48;2.72;;;4.60;99.90;;;;;;5046871;28;20080;-40
2023/03/04 03:08:15;;;;;;;11.43;1.42;;;4.80;99.90;;;;;;5046761;28;20049;-40
2023/03/04 03:10:41;;;;;;;9.13;1.40;;;4.80;99.90;;;;;;5047014;28;20044;-40
2023/03/04 03:13:07;;;;;;;11.27;0.98;;;4.70;99.90;;;;;;5047064;28;20109;-40
2023/03/04 03:15:32;;;;;;;12.10;0.90;;;4.70;99.90;;;;;;5046868;28;20041;-40
2023/03/04 03:17:58;;;;;;;12.20;1.13;;;4.60;99.90;;;;;;5046761;28;20060;-40
2023/03/04 03:20:24;;;;;;;10.25;0.82;;;4.70;99.90;;;;;;5046770;28;20048;-40
2023/03/04 03:22:49;;;;;;;15.93;1.50;;;4.60;99.90;;;;;;5046770;28;20048;-40
2023/03/04 03:25:16;;;;;;;8.10;0.80;;;4.70;99.90;;;;;;5046776;28;20044;-40
2023/03/04 03:27:41;;;;;;;8.70;1.13;;;4.70;99.90;;;;;;5046965;28;20055;-40
2023/03/04 03:30:11;;;;;;;8.30;0.82;;;4.80;99.90;;;;;;5046751;28;20052;-40
2023/03/04 03:32:36;;;;;;;10.65;0.98;;;4.70;99.90;;;;;;5046651;28;20925;-40
2023/03/04 03:35:03;;;;;;;14.20;0.98;;;4.70;99.90;;;;;;5046511;28;20170;-40
2023/03/04 03:37:28;;;;;;;13.85;1.30;;;6.40;99.90;;;;;;5044543;28;20056;-40
2023/03/04 03:39:54;;;;;;;9.38;1.17;;;5.60;99.90;;;;;;5046139;28;20045;-40
2023/03/04 03:42:20;;;;;;;12.23;2.80;;;4.70;99.90;;;;;;5046284;28;20040;-40
2023/03/04 03:44:46;;;;;;;14.43;1.25;;;4.80;99.90;;;;;;5046214;28;20049;-40
2023/03/04 03:47:11;;;;;;;11.05;0.88;;;4.60;99.90;;;;;;5046324;28;20044;-39
2023/03/04 03:49:37;;;;;;;8.68;0.77;;;4.60;99.90;;;;;;5046015;28;20071;-40
2023/03/04 03:52:03;;;;;;;8.35;0.93;;;4.70;99.90;;;;;;5045735;28;20049;-40
2023/03/04 03:54:28;;;;;;;10.15;2.15;;;4.70;99.90;;;;;;5045447;28;20053;-40
2023/03/04 03:56:54;;;;;;;11.77;0.88;;;4.70;99.90;;;;;;5045939;28;20044;-40
2023/03/04 03:59:20;;;;;;;7.10;0.65;;;4.70;99.90;;;;;;5046681;28;20095;-40
2023/03/04 04:01:45;;;;;;;10.98;0.75;;;4.90;99.90;;;;;;5046314;28;20047;-40
2023/03/04 04:04:11;;;;;;;8.95;1.00;;;4.80;99.90;;;;;;5046827;28;20067;-40
2023/03/04 04:06:37;;;;;;;13.13;0.65;;;4.70;99.90;;;;;;5046119;28;20175;-40
2023/03/04 04:09:02;;;;;;;7.50;0.70;;;4.80;99.90;;;;;;5045788;28;20045;-40
2023/03/04 04:11:28;;;;;;;9.95;0.80;;;4.60;99.90;;;;;;5045778;28;20044;-40
2023/03/04 04:13:54;;;;;;;9.32;1.10;;;4.80;99.90;;;;;;5046171;28;20040;-40
2023/03/04 04:16:19;;;;;;;13.05;0.95;;;4.80;99.90;;;;;;5045815;28;20048;-40
2023/03/04 04:18:45;;;;;;;4.05;0.60;;;4.70;99.90;;;;;;5046211;28;20123;-40
2023/03/04 04:21:11;;;;;;;8.98;1.15;;;4.80;99.90;;;;;;5046441;28;20463;-40
2023/03/04 04:23:36;;;;;;;7.50;0.50;;;4.70;99.90;;;;;;5045838;28;20433;-40
2023/03/04 04:26:02;;;;;;;10.10;1.10;;;4.70;99.90;;;;;;5046025;28;20553;-40
2023/03/04 04:28:28;;;;;;;8.55;0.73;;;4.70;99.90;;;;;;5046048;28;20056;-40
2023/03/04 04:30:54;;;;;;;8.52;0.70;;;4.70;99.90;;;;;;5046323;28;20702;-40
2023/03/04 04:33:19;;;;;;;7.30;0.60;;;4.70;99.90;;;;;;5045959;28;20041;-40
2023/03/04 04:35:45;;;;;;;11.95;0.93;;;4.80;99.90;;;;;;5045500;28;20108;-40
2023/03/04 04:38:11;;;;;;;8.27;0.60;;;4.70;99.90;;;;;;5046025;28;20659;-40
2023/03/04 04:40:36;;;;;;;8.13;0.63;;;4.90;99.90;;;;;;5045969;28;20556;-40
2023/03/04 04:43:02;;;;;;;10.23;0.60;;;4.90;99.90;;;;;;5046225;28;20045;-40
2023/03/04 04:45:28;;;;;;;12.73;0.60;;;4.80;99.90;;;;;;5045980;28;20044;-40
2023/03/04 04:47:56;;;;;;;10.40;1.00;;;4.80;99.90;;;;;;5046054;28;20442;-40
2023/03/04 04:50:23;;;;;;;8.70;0.60;;;4.80;99.90;;;;;;5045541;28;20573;-40
2023/03/04 04:52:49;;;;;;;13.23;1.10;;;4.80;99.90;;;;;;5046521;28;20053;-40
2023/03/04 04:55:14;;;;;;;8.00;0.57;;;4.80;99.90;;;;;;5044645;28;20037;-40
2023/03/04 04:57:40;;;;;;;5.82;1.10;;;4.80;99.90;;;;;;5045697;28;20520;-40
2023/03/04 05:00:06;;;;;;;10.27;1.30;;;4.80;99.90;;;;;;5044618;28;20037;-40
2023/03/04 05:02:35;;;;;;;12.15;0.77;;;4.70;99.90;;;;;;5044517;28;20676;-40
2023/03/04 05:05:05;;;;;;;11.25;1.38;;;4.70;99.90;;;;;;5049821;28;20049;-40
2023/03/04 05:07:32;;;;;;;8.07;1.17;;;4.70;99.90;;;;;;5050106;28;20037;-40
2023/03/04 05:09:57;;;;;;;5.35;0.82;;;4.80;99.90;;;;;;5050051;28;20052;-40
2023/03/04 05:12:23;;;;;;;7.53;1.48;;;4.70;99.90;;;;;;5050008;28;20041;-40
2023/03/04 05:14:49;;;;;;;11.80;0.77;;;4.80;99.90;;;;;;5049449;28;20045;-39
2023/03/04 05:17:14;;;;;;;7.25;0.60;;;4.80;99.90;;;;;;5049780;28;20094;-40
2023/03/04 05:19:40;;;;;;;7.55;0.60;;;4.80;99.90;;;;;;5048445;28;20541;-40
2023/03/04 05:22:06;;;;;;;6.65;0.60;;;4.80;99.90;;;;;;5049559;28;20045;-40
2023/03/04 05:24:32;;;;;;;8.95;0.85;;;4.80;99.90;;;;;;5049175;28;20048;-40
2023/03/04 05:26:57;;;;;;;7.13;0.65;;;4.70;99.90;;;;;;5049439;28;20049;-40
2023/03/04 05:29:23;;;;;;;12.55;0.80;;;5.70;99.90;;;;;;5049374;28;20041;-40
2023/03/04 05:31:48;;;;;;;15.50;1.45;;;4.80;99.90;;;;;;5047945;28;20048;-40
2023/03/04 05:34:14;;;;;;;7.10;0.50;;;5.00;99.90;;;;;;5049890;28;20082;-40
2023/03/04 05:36:40;;;;;;;14.63;1.05;;;4.90;99.90;;;;;;5049462;28;20515;-40
2023/03/04 05:39:06;;;;;;;8.25;0.93;;;4.80;99.90;;;;;;5031234;28;20118;-39
2023/03/04 05:41:31;;;;;;;9.20;0.77;;;4.80;99.90;;;;;;5049174;28;20040;-39
2023/03/04 05:43:57;;;;;;;11.20;1.23;;;4.80;99.90;;;;;;5048844;28;20099;-40
2023/03/04 05:46:24;;;;;;;10.77;1.10;;;4.70;99.90;;;;;;5049467;28;20635;-40
2023/03/04 05:48:51;;;;;;;6.75;0.68;;;4.90;99.90;;;;;;5048719;28;20115;-40
2023/03/04 05:51:17;;;;;;;13.27;1.60;;;4.70;99.90;;;;;;5048066;28;20057;-40
2023/03/04 05:53:43;;;;;;;14.32;1.00;;;4.70;99.90;;;;;;5048867;28;20391;-40
2023/03/04 05:56:15;;;;;;;12.77;2.72;;;4.80;99.90;;;;;;5048500;28;20041;-40
2023/03/04 05:58:41;;;;;;;6.68;1.27;;;4.50;99.90;;;;;;5048441;28;20123;-40
2023/03/04 06:01:07;;;;;;;12.98;1.10;;;5.30;99.90;;;;;;5048538;28;20523;-40
2023/03/04 06:03:33;;;;;;;4.00;0.82;;;4.60;99.90;;;;;;5048548;28;20032;-40
2023/03/04 06:05:59;;;;;;;7.82;0.90;;;4.60;99.90;;;;;;5048260;28;20048;-40
2023/03/04 06:08:26;;;;;;;6.32;0.68;;;5.50;99.90;;;;;;5048223;28;20048;-40
2023/03/04 06:10:55;;;;;;;10.15;1.48;;;5.60;99.90;;;;;;5048251;28;20037;-40
2023/03/04 06:13:22;;;;;;;12.00;1.02;;;4.70;99.90;;;;;;5048943;28;20044;-40
2023/03/04 06:15:56;;;;;;;10.27;1.13;;;4.60;99.90;;;;;;5048306;28;20490;-40
2023/03/04 06:18:23;;;;;;;5.10;0.60;;;4.40;99.90;;;;;;5048636;28;20124;-40
2023/03/04 06:20:49;;;;;;;6.30;0.77;;;5.30;99.90;;;;;;5048286;28;20068;-40
2023/03/04 06:23:15;;;;;;;13.18;1.10;;;4.70;99.90;;;;;;5048375;28;20045;-39
2023/03/04 06:25:41;;;;;;;8.75;0.73;;;4.60;99.90;;;;;;5047675;28;20585;-40
2023/03/04 06:28:07;;;;;;;9.70;1.15;;;4.70;99.90;;;;;;5048005;28;20056;-40
2023/03/04 06:30:33;;;;;;;10.50;1.60;;;4.60;99.90;;;;;;5048003;28;20052;-40
2023/03/04 06:32:58;;;;;;;11.10;1.77;;;5.50;99.90;;;;;;5047699;28;20045;-40
2023/03/04 06:35:24;;;;;;;8.15;1.08;;;4.70;99.90;;;;;;5048051;28;20091;-40
2023/03/04 06:37:50;;;;;;;11.98;2.03;;;4.80;99.90;;;;;;5048018;28;20045;-40
2023/03/04 06:40:16;;;;;;;12.10;0.88;;;4.90;99.90;;;;;;5048020;28;20055;-40
2023/03/04 06:42:42;;;;;;;7.32;1.38;;;4.90;99.90;;;;;;5047663;28;20055;-40
2023/03/04 06:45:09;;;;;;;10.90;1.00;;;5.00;99.90;;;;;;5047943;28;20055;-40
2023/03/04 06:47:35;;;;;;;10.80;0.98;;;4.80;99.90;;;;;;5047594;28;20505;-40
2023/03/04 06:50:02;;;;;;;7.95;0.77;;;5.10;99.90;;;;;;5047886;28;20049;-40
2023/03/04 06:52:28;;;;;;;10.82;1.65;;;5.70;99.90;;;;;;5048438;28;20057;-39
2023/03/04 06:54:53;;;;;;;9.73;0.77;;;4.90;99.90;;;;;;5048241;28;20049;-40
2023/03/04 06:57:19;;;;;;;9.75;1.75;;;5.00;99.90;;;;;;5047306;28;20049;-40
2023/03/04 06:59:45;;;;;;;8.23;0.80;;;4.90;99.90;;;;;;5047949;28;20427;-40
2023/03/04 07:02:11;;;;;;;11.15;1.20;;;5.10;99.90;;;;;;5046159;28;20083;-40
2023/03/04 07:04:38;;;;;;;6.00;1.50;;;5.10;99.90;;;;;;5047766;28;20052;-40
2023/03/04 07:07:03;;;;;;;10.30;1.27;;;5.90;99.90;;;;;;5047698;28;20041;-40
2023/03/04 07:09:29;;;;;;;13.23;1.23;;;5.10;99.90;;;;;;5048005;28;20379;-40
2023/03/04 07:11:55;;;;;;;10.88;1.00;;;5.00;99.90;;;;;;5047215;28;20052;-40
2023/03/04 07:14:21;;;;;;;9.40;0.70;;;5.30;99.90;;;;;;5047241;28;20637;-40
2023/03/04 07:16:46;;;;;;;7.47;0.90;;;5.10;99.90;;;;;;5046776;28;20453;-40
2023/03/04 07:19:12;;;;;;;9.40;0.80;;;5.30;99.90;;;;;;5046950;28;20044;-40
2023/03/04 07:21:38;;;;;;;12.30;1.13;;;5.50;99.90;;;;;;5047312;28;20128;-40
2023/03/04 07:24:04;;;;;;;8.32;1.05;;;5.80;99.90;;;;;;5047039;28;20483;-40
2023/03/04 07:26:29;;;;;;;9.70;0.90;;;5.30;99.90;;;;;;5046540;28;20134;-40
2023/03/04 07:28:57;;;;;;;6.60;1.58;;;6.40;99.90;;;;;;5045386;28;20045;-40
2023/03/04 07:31:28;;;;;;;9.23;1.75;;;5.60;99.90;;;;;;5047120;28;20040;-40
2023/03/04 07:34:04;;;;;;;7.30;1.05;;;5.70;99.90;;;;;;5046940;28;20036;-40
2023/03/04 07:36:30;;;;;;;10.43;1.10;;;5.80;99.90;;;;;;5046893;28;20420;-40
2023/03/04 07:38:56;;;;;;;7.95;1.60;;;5.60;99.90;;;;;;5046653;28;20482;-40
2023/03/04 07:41:24;;;;;;;10.10;1.23;;;5.50;99.90;;;;;;5046839;28;20045;-40
2023/03/04 07:43:50;;;;;;;10.45;1.20;;;5.60;99.90;;;;;;5046379;28;20502;-40
2023/03/04 07:46:18;;;;;;;7.35;1.58;;;5.70;99.90;;;;;;5046657;28;20672;-40
2023/03/04 07:48:43;;;;;;;6.40;1.05;;;6.60;99.90;;;;;;5047007;28;20052;-40
2023/03/04 07:51:15;;;;;;;10.35;1.20;;;5.80;99.90;;;;;;5046421;28;20061;-40
2023/03/04 07:53:44;;;;;;;12.77;1.50;;;6.50;99.90;;;;;;5046662;28;20587;-40
2023/03/04 07:56:16;;;;;;;20.60;1.75;;;5.60;99.90;;;;;;5046624;28;20395;-40
2023/03/04 07:58:42;;;;;;;19.10;1.45;;;5.80;99.90;;;;;;5046912;28;20037;-40
2023/03/04 08:01:13;;;;;;;11.30;1.23;;;6.50;99.90;;;;;;5046885;28;20154;-40
2023/03/04 08:03:39;;;;;;;16.38;1.90;;;5.70;99.90;;;;;;5045925;28;20495;-40
2023/03/04 08:06:07;;;;;;;17.38;2.70;;;6.40;99.90;;;;;;5046508;28;20040;-40
2023/03/04 08:08:33;;;;;;;25.40;4.78;;;5.90;99.90;;;;;;5046512;28;20052;-40
2023/03/04 08:10:59;;;;;;;18.30;1.65;;;6.10;99.90;;;;;;5046124;28;20044;-40
2023/03/04 08:13:25;;;;;;;20.30;2.67;;;6.70;99.90;;;;;;5046208;28;20045;-40
2023/03/04 08:15:50;;;;;;;14.60;1.83;;;6.00;99.90;;;;;;5044694;28;20059;-40
2023/03/04 08:18:16;;;;;;;22.08;2.25;;;6.90;99.90;;;;;;5045618;28;20041;-40
2023/03/04 08:20:42;;;;;;;20.20;1.60;;;6.20;99.90;;;;;;5045387;28;20045;-40
2023/03/04 08:23:09;;;;;;;21.63;2.72;;;6.50;99.90;;;;;;5045696;28;20053;-40
2023/03/04 08:25:39;;;;;;;23.77;2.53;;;6.70;99.90;;;;;;5045066;28;20056;-40
2023/03/04 08:28:05;;;;;;;19.52;2.03;;;6.50;99.90;;;;;;5044734;28;20697;-40
2023/03/04 08:30:31;;;;;;;22.58;2.25;;;7.00;99.90;;;;;;5044189;28;20514;-40
2023/03/04 08:32:56;;;;;;;22.70;2.72;;;7.30;99.90;;;;;;5044297;28;20049;-40
2023/03/04 08:35:22;;;;;;;18.45;1.70;;;6.60;99.90;;;;;;5045221;28;20807;-40
2023/03/04 08:37:48;;;;;;;22.20;3.50;;;6.50;99.90;;;;;;5044640;28;20595;-40
2023/03/04 08:40:14;;;;;;;20.10;1.73;;;7.30;99.90;;;;;;5048783;28;20045;-40
2023/03/04 08:42:40;;;;;;;18.90;1.92;;;6.50;99.90;;;;;;5049399;28;20048;-40
2023/03/04 08:45:08;;;;;;;17.23;3.58;;;6.40;99.90;;;;;;5050202;28;20082;-40
2023/03/04 08:47:34;;;;;;;18.70;2.25;;;6.50;99.90;;;;;;5050094;28;20040;-40
2023/03/04 08:49:59;;;;;;;17.73;2.08;;;6.70;99.90;;;;;;5049233;28;20110;-41
2023/03/04 08:52:25;;;;;;;21.88;2.65;;;6.90;99.90;;;;;;5049170;28;20052;-40
2023/03/04 08:54:51;;;;;;;21.35;2.42;;;7.70;99.90;;;;;;5049447;28;20052;-40
2023/03/04 08:57:16;;;;;;;22.50;3.55;;;7.10;99.90;;;;;;5048416;28;20052;-40
2023/03/04 08:59:42;;;;;;;16.88;2.40;;;7.90;99.90;;;;;;5049265;28;20127;-40
2023/03/04 09:02:08;;;;;;;26.08;2.80;;;7.50;99.90;;;;;;5049174;28;20067;-40
2023/03/04 09:04:35;;;;;;;21.15;2.28;;;7.70;99.90;;;;;;5049140;28;20068;-40
2023/03/04 09:07:01;;;;;;;18.35;2.17;;;7.60;99.90;;;;;;5049560;28;20077;-40
2023/03/04 09:09:27;;;;;;;20.63;3.08;;;8.40;99.90;;;;;;5049707;28;20834;-40
2023/03/04 09:11:52;;;;;;;16.83;2.22;;;8.00;99.90;;;;;;5049397;28;20086;-40
2023/03/04 09:14:18;;;;;;;18.50;1.80;;;7.40;99.90;;;;;;5048648;28;20047;-40
2023/03/04 09:16:44;;;;;;;23.10;2.70;;;7.60;99.90;;;;;;5047432;28;20045;-40
2023/03/04 09:19:09;;;;;;;18.85;2.03;;;7.30;99.90;;;;;;5048876;28;20052;-40
2023/03/04 09:21:35;;;;;;;16.15;2.80;;;7.40;99.90;;;;;;5049032;28;20045;-40
2023/03/04 09:24:01;;;;;;;17.80;2.50;;;7.40;99.90;;;;;;5048872;28;20068;-40
2023/03/04 09:26:28;;;;;;;19.63;2.30;;;7.40;99.90;;;;;;5048528;28;20834;-40
2023/03/04 09:28:59;;;;;;;21.92;2.20;;;8.00;99.90;;;;;;5048996;28;20045;-40
2023/03/04 09:31:26;;;;;;;19.65;2.63;;;7.50;99.90;;;;;;5048893;28;20033;-40
2023/03/04 09:33:52;;;;;;;20.33;2.95;;;7.50;99.90;;;;;;5048910;28;20045;-40
2023/03/04 09:36:18;;;;;;;22.80;3.80;;;7.50;99.90;;;;;;5048809;28;20060;-40
2023/03/04 09:38:45;;;;;;;19.27;2.67;;;7.60;99.90;;;;;;5049029;28;20090;-40
2023/03/04 09:41:29;;;;;;;23.02;1.90;;;7.50;99.90;;;;;;5048751;28;20564;-40
2023/03/04 09:43:55;;;;;;;14.82;1.80;;;7.40;99.90;;;;;;5048799;28;20550;-40
2023/03/04 09:46:38;;;;;;;13.77;1.45;;;7.40;99.90;;;;;;5048933;28;20032;-40
2023/03/04 09:49:03;;;;;;;;;;;7.80;99.90;;;;;;5049016;28;20037;-40
2023/03/04 09:51:38;;;;;;;13.60;1.35;;;7.50;99.90;;;;;;5047881;28;20432;-41
2023/03/04 09:54:25;;;;;;;11.32;1.50;;;7.60;99.90;;;;;;5047738;28;20076;-41
2023/03/04 09:56:57;;;;;;;9.65;0.80;;;7.70;99.90;;;;;;5047941;28;20119;-42
2023/03/04 09:59:54;;;;;;;9.23;2.80;;;7.70;99.90;;;;;;5048306;28;20045;-41
2023/03/04 10:02:41;;;;;;;11.10;1.10;;;7.60;99.90;;;;;;5043335;28;20049;-41
2023/03/04 10:05:13;;;;;;;9.15;1.10;;;7.50;99.90;;;;;;5048560;28;20048;-41
2023/03/04 10:07:42;;;;;;;6.10;1.65;;;7.30;99.90;;;;;;5048569;28;20107;-41
2023/03/04 10:10:21;;;;;;;9.32;0.40;;;7.90;99.90;;;;;;5049067;28;20045;-41
2023/03/04 10:12:49;;;;;;;6.03;0.65;;;7.40;99.90;;;;;;5049360;28;20033;-41
2023/03/04 10:15:30;;;;;;;3.03;0.40;;;7.70;99.90;;;;;;5048896;28;20041;-41
2023/03/04 10:18:21;;;;;;;4.07;0.30;;;7.80;99.90;;;;;;5049080;28;20048;-41
2023/03/04 10:21:00;;;;;;;7.25;0.40;;;7.90;99.90;;;;;;5048174;28;20057;-41
2023/03/04 10:23:28;;;;;;;4.82;0.40;;;8.30;99.90;;;;;;5047702;28;20049;-41
2023/03/04 10:25:55;;;;;;;6.15;0.52;;;9.00;99.90;;;;;;5048355;28;20623;-41
2023/03/04 10:28:28;;;;;;;9.68;0.95;;;8.70;99.90;;;;;;5048041;28;20045;-42
2023/03/04 10:31:08;;;;;;;3.95;0.30;;;9.50;99.90;;;;;;5048211;28;20185;-41
2023/03/04 10:33:37;;;;;;;7.70;0.65;;;9.50;99.90;;;;;;5047494;28;20045;-41
2023/03/04 10:36:22;;;;;;;6.22;0.30;;;9.50;99.90;;;;;;5048113;28;20044;-41
2023/03/04 10:38:51;;;;;;;8.82;0.60;;;9.40;99.90;;;;;;5046677;28;20139;-42
2023/03/04 10:41:23;;;;;;;8.88;0.40;;;9.10;99.90;;;;;;5048176;28;20041;-41
2023/03/04 10:44:13;;;;;;;7.97;0.68;;;8.80;99.90;;;;;;5046510;28;20068;-41
2023/03/04 10:46:44;;;;;;;17.30;1.20;;;8.60;99.90;;;;;;5048017;28;20723;-41
2023/03/04 10:49:15;;;;;;;10.48;1.42;;;8.70;99.90;;;;;;5048011;28;20466;-42
2023/03/04 10:51:53;;;;;;;14.07;1.45;;;8.30;99.90;;;;;;5047578;28;20685;-41
2023/03/04 10:54:45;;;;;;;15.13;1.13;;;8.20;99.90;;;;;;5047998;28;20791;-41
2023/03/04 10:57:20;;;;;;;11.77;1.27;;;8.40;99.90;;;;;;5047890;28;20052;-41
2023/03/04 10:59:54;;;;;;;13.82;1.17;;;8.60;99.90;;;;;;5047499;28;20110;-41
2023/03/04 11:02:29;;;;;;;11.55;1.70;;;9.10;99.90;;;;;;5046792;28;20063;-41
2023/03/04 11:05:13;;;;;;;15.13;1.85;;;9.10;99.90;;;;;;5047394;28;20049;-41
2023/03/04 11:07:51;;;;;;;11.68;1.35;;;9.30;99.90;;;;;;5046939;28;20094;-41
2023/03/04 11:10:18;;;;;;;10.15;0.70;;;9.40;99.90;;;;;;5047500;28;20099;-41
2023/03/04 11:13:10;;;;;;;17.08;1.90;;;10.00;99.90;;;;;;5047327;28;20083;-41
2023/03/04 11:15:57;;;;;;;14.82;1.17;;;9.80;99.90;;;;;;5046868;28;20064;-41
2023/03/04 11:18:47;;;;;;;10.93;1.50;;;9.90;99.90;;;;;;5047173;28;20045;-42
2023/03/04 11:21:20;;;;;;;9.77;1.60;;;10.00;99.90;;;;;;5047305;28;20044;-42
2023/03/04 11:23:48;;;;;;;12.48;1.55;;;10.10;99.90;;;;;;5046964;28;20368;-41
2023/03/04 11:26:30;;;;;;;11.93;2.35;;;10.20;99.90;;;;;;5046753;28;20052;-41
2023/03/04 11:29:10;;;;;;;16.60;2.58;;;10.20;99.90;;;;;;5046268;28;20052;-42
2023/03/04 11:31:42;;;;;;;7.82;1.15;;;9.90;99.90;;;;;;5046585;28;20068;-42
2023/03/04 11:34:26;;;;;;;12.38;1.38;;;9.70;99.90;;;;;;5047038;28;20052;-41
2023/03/04 11:37:23;;;;;;;15.50;1.63;;;9.50;99.90;;;;;;5045274;28;20714;-41
2023/03/04 11:40:03;;;;;;;13.02;1.70;;;9.40;99.90;;;;;;5043322;28;20065;-41
2023/03/04 11:42:50;;;;;;;11.68;2.28;;;9.30;99.90;;;;;;5045698;28;20435;-42
2023/03/04 11:45:35;;;;;;;10.48;1.23;;;9.20;99.90;;;;;;5046866;28;20045;-41
2023/03/04 11:48:04;;;;;;;10.70;1.13;;;9.10;99.90;;;;;;5046960;28;20194;-41
2023/03/04 11:50:48;;;;;;;18.20;2.03;;;9.30;99.90;;;;;;5046528;28;20084;-41
2023/03/04 11:53:22;;;;;;;13.25;4.72;;;9.50;99.90;;;;;;5046541;28;20133;-42
2023/03/04 11:56:19;;;;;;;15.88;4.95;;;9.70;99.90;;;;;;5045076;28;20139;-41
2023/03/04 11:59:21;;;;;;;15.00;2.13;;;10.00;99.90;;;;;;5046096;28;20578;-42
2023/03/04 12:01:50;;;;;;;13.00;1.92;;;10.10;99.90;;;;;;5046741;28;20099;-41
2023/03/04 12:04:27;;;;;;;12.40;1.48;;;10.20;99.90;;;;;;5046621;28;20390;-42
2023/03/04 12:07:17;;;;;;;9.20;1.40;;;10.20;99.90;;;;;;5046025;28;20041;-41
2023/03/04 12:10:02;;;;;;;13.95;2.22;;;10.20;99.90;;;;;;5046327;28;20055;-41
2023/03/04 12:12:50;;;;;;;12.13;2.17;;;10.30;99.90;;;;;;5046063;28;20491;-41
2023/03/04 12:15:28;;;;;;;12.48;1.40;;;10.30;99.90;;;;;;5042964;28;20518;-41
2023/03/04 12:18:26;;;;;;;6.38;0.70;;;10.10;99.90;;;;;;5046164;28;20048;-41
2023/03/04 12:21:22;;;;;;;7.03;0.70;;;10.00;99.90;;;;;;5046199;28;20083;-41
2023/03/04 12:23:56;;;;;;;6.88;0.70;;;9.90;99.90;;;;;;5046230;28;20398;-41
2023/03/04 12:26:39;;;;;;;13.32;1.70;;;9.70;99.90;;;;;;5046298;28;20041;-41
2023/03/04 12:29:14;;;;;;;12.55;1.88;;;9.70;99.90;;;;;;5045856;28;20049;-42
2023/03/04 12:31:45;;;;;;;12.32;1.45;;;9.80;99.90;;;;;;5044242;28;20861;-41
2023/03/04 12:34:33;;;;;;;8.95;1.75;;;9.90;99.90;;;;;;5045973;28;20094;-41
2023/03/04 12:37:40;;;;;;;10.02;1.38;;;10.00;99.90;;;;;;5046156;28;20049;-41
2023/03/04 12:40:12;;;;;;;8.88;1.85;;;10.10;99.90;;;;;;5023418;28;20114;-41
2023/03/04 12:43:03;;;;;;;10.13;1.67;;;10.00;99.90;;;;;;5023589;28;20060;-41
2023/03/04 12:45:46;;;;;;;7.43;1.43;;;9.80;99.90;;;;;;5038416;28;20056;-41
2023/03/04 12:48:17;;;;;;;5.97;1.00;;;9.80;99.90;;;;;;5046141;28;20045;-41
2023/03/04 12:51:08;;;;;;;9.68;1.48;;;9.90;99.90;;;;;;5045771;28;20167;-41
2023/03/04 12:53:37;;;;;;;14.45;2.80;;;10.10;99.90;;;;;;5045939;28;20041;-41
2023/03/04 12:56:04;;;;;;;14.40;1.70;;;10.00;99.90;;;;;;5045287;28;20033;-41
2023/03/04 12:58:32;;;;;;;14.43;1.60;;;9.90;99.90;;;;;;5045221;28;20130;-41
2023/03/04 13:01:17;;;;;;;14.40;2.80;;;9.80;99.90;;;;;;5045414;28;20380;-42
2023/03/04 13:04:30;;;;;;;17.58;2.03;;;9.80;99.90;;;;;;5046003;28;20087;-41